Time;durP1;ratioP1;P1;durP2;ratioP2;P2;SDS_P1;SDS_P2;PMS_P1;PMS_P2;Temp;Humidity;BMP_temperature;BMP_pressure;BME280_temperature;BME280_humidity;BME280_pressure;Samples;Min_cycle;Max_cycle;Signal;HPM_P1;HPM_P2
2021/03/23 00:00:49;;;;;;;23.25;17.55;;;;;;;7.31;54.02;99897.66;1761243;81;21139;-55
2021/03/23 00:03:28;;;;;;;22.22;16.95;;;;;;;7.28;54.02;99898.57;1765397;80;21184;-55
2021/03/23 00:05:56;;;;;;;22.65;17.75;;;;;;;7.30;54.03;99899.85;1764481;80;21107;-66
2021/03/23 00:08:39;;;;;;;24.75;18.42;;;;;;;7.31;53.91;99905.97;1766573;80;21366;-55
2021/03/23 00:11:26;;;;;;;23.77;16.93;;;;;;;7.23;53.92;99905.58;1768026;80;21233;-66
2021/03/23 00:13:58;;;;;;;23.32;17.57;;;;;;;7.26;54.01;99909.94;1782470;80;21193;-55
2021/03/23 00:16:29;;;;;;;22.02;16.45;;;;;;;7.25;54.02;99920.84;1778711;80;21223;-55
2021/03/23 00:18:57;;;;;;;21.20;16.40;;;;;;;7.17;54.17;99921.77;1761769;81;21277;-55
2021/03/23 00:21:25;;;;;;;24.32;17.98;;;;;;;7.17;54.21;99931.78;1779597;80;21207;-54
2021/03/23 00:23:54;;;;;;;23.73;18.42;;;;;;;7.16;54.35;99931.81;1777606;80;21091;-66
2021/03/23 00:26:22;;;;;;;22.02;16.55;;;;;;;7.22;54.29;99930.47;1768279;80;21119;-54
2021/03/23 00:28:53;;;;;;;23.80;17.95;;;;;;;7.20;54.28;99931.77;1762503;80;21143;-55
2021/03/23 00:31:24;;;;;;;21.73;16.85;;;;;;;7.17;54.35;99925.70;1788048;80;21446;-54
2021/03/23 00:33:54;;;;;;;23.07;17.98;;;;;;;7.14;54.32;99927.88;1768410;80;21728;-57
2021/03/23 00:36:25;;;;;;;23.02;16.30;;;;;;;7.17;54.31;99927.86;1761794;81;21292;-66
2021/03/23 00:38:53;;;;;;;22.32;17.05;;;;;;;7.14;54.24;99932.69;1767951;80;21143;-66
2021/03/23 00:41:21;;;;;;;24.70;17.37;;;;;;;7.10;54.37;99932.69;1761667;81;21542;-66
2021/03/23 00:43:50;;;;;;;27.70;17.40;;;;;;;7.06;54.54;99930.54;1769894;80;21167;-56
2021/03/23 00:46:17;;;;;;;24.50;17.80;;;;;;;7.02;54.58;99927.50;1761866;80;21123;-55
2021/03/23 00:48:46;;;;;;;23.65;17.75;;;;;;;6.99;54.66;99930.13;1767830;80;21171;-55
2021/03/23 00:51:17;;;;;;;21.73;16.95;;;;;;;7.02;54.63;99931.89;1763516;80;21155;-66
2021/03/23 00:53:56;;;;;;;25.45;17.87;;;;;;;6.99;54.63;99934.95;1787136;80;21581;-55
2021/03/23 00:56:24;;;;;;;21.50;16.23;;;;;;;7.01;54.52;99941.92;1790742;79;21683;-66
2021/03/23 00:58:52;;;;;;;23.05;17.05;;;;;;;6.99;54.22;99936.67;1764759;80;21126;-55
2021/03/23 01:01:19;;;;;;;22.77;16.30;;;;;;;6.95;54.50;99944.99;1769385;80;21111;-54
2021/03/23 01:03:48;;;;;;;22.70;16.07;;;;;;;6.91;54.50;99951.11;1792658;80;21169;-55
2021/03/23 01:06:16;;;;;;;22.32;16.07;;;;;;;6.90;54.52;99953.72;1785745;80;21108;-66
2021/03/23 01:08:45;;;;;;;21.93;15.50;;;;;;;6.80;54.44;99946.35;1792623;80;21143;-55
2021/03/23 01:11:12;;;;;;;21.05;15.48;;;;;;;6.75;54.52;99954.23;1775435;79;21110;-67
2021/03/23 01:13:41;;;;;;;21.23;14.93;;;;;;;6.67;54.42;99951.62;1759797;81;21154;-59
2021/03/23 01:16:08;;;;;;;20.43;14.30;;;;;;;6.63;54.47;99955.11;1754781;81;21135;-55
2021/03/23 01:18:38;;;;;;;19.50;15.13;;;;;;;6.60;54.42;99962.11;1748264;81;21151;-66
2021/03/23 01:21:06;;;;;;;20.80;14.55;;;;;;;6.45;54.68;99954.73;1771828;81;21135;-54
2021/03/23 01:23:33;;;;;;;20.05;13.60;;;;;;;6.49;54.63;99962.14;1777907;80;21153;-54
2021/03/23 01:26:01;;;;;;;17.25;13.10;;;;;;;6.52;54.68;99962.99;1773115;80;21107;-66
2021/03/23 01:28:30;;;;;;;18.17;13.35;;;;;;;6.53;54.60;99958.20;1772795;81;21423;-54
2021/03/23 01:30:59;;;;;;;16.65;11.65;;;;;;;6.53;54.76;99959.95;1748145;81;21143;-55
2021/03/23 01:33:27;;;;;;;17.23;11.40;;;;;;;6.54;54.72;99962.55;1754593;81;21131;-66
2021/03/23 01:35:55;;;;;;;18.70;13.85;;;;;;;6.54;54.78;99965.17;1748466;81;21171;-66
2021/03/23 01:38:22;;;;;;;16.75;12.73;;;;;;;6.53;54.74;99964.73;1755523;81;21088;-66
2021/03/23 01:40:50;;;;;;;16.95;11.85;;;;;;;6.47;54.88;99963.89;1748370;81;21104;-63
2021/03/23 01:43:26;;;;;;;14.98;11.28;;;;;;;6.43;54.99;99967.38;1754678;81;21120;-55
2021/03/23 01:45:56;;;;;;;17.62;12.68;;;;;;;6.39;55.17;99968.69;1756454;81;21088;-65
2021/03/23 01:48:29;;;;;;;16.48;11.53;;;;;;;6.29;55.38;99964.34;1754699;81;21294;-66
2021/03/23 01:51:04;;;;;;;17.40;11.60;;;;;;;6.23;55.52;99967.84;1748698;81;21136;-55
2021/03/23 01:53:47;;;;;;;14.87;10.45;;;;;;;6.26;55.48;99966.96;1774209;81;21559;-67
2021/03/23 01:56:16;;;;;;;12.88;9.20;;;;;;;6.22;55.41;99967.41;1769302;81;21127;-54
2021/03/23 01:58:45;;;;;;;13.08;9.33;;;;;;;6.23;55.21;99967.84;1741411;81;21183;-66
2021/03/23 02:01:15;;;;;;;12.33;9.08;;;;;;;6.31;55.21;99974.36;1772276;81;21115;-66
2021/03/23 02:03:44;;;;;;;13.45;9.00;;;;;;;6.33;54.95;99972.62;1779021;81;21582;-66
2021/03/23 02:06:35;;;;;;;11.10;7.72;;;;;;;6.37;54.85;99973.50;1754949;80;21143;-66
2021/03/23 02:09:06;;;;;;;11.55;7.75;;;;;;;6.39;54.54;99971.76;1748568;81;21159;-55
2021/03/23 02:11:35;;;;;;;;;;;;;;;6.45;54.36;99978.26;1775451;81;21167;-55
2021/03/23 02:14:03;;;;;;;9.48;6.15;;;;;;;6.46;54.00;99977.38;1778551;80;20240;-55
2021/03/23 02:16:31;;;;;;;10.00;6.15;;;;;;;6.46;53.67;99988.30;1783528;80;21162;-54
2021/03/23 02:18:59;;;;;;;8.90;4.95;;;;;;;6.45;53.67;99978.70;1785711;80;21166;-55
2021/03/23 02:21:26;;;;;;;9.30;4.65;;;;;;;6.40;53.07;99986.12;1792797;80;21558;-54
2021/03/23 02:23:56;;;;;;;8.68;5.17;;;;;;;6.48;53.43;99987.41;1776630;80;21123;-54
2021/03/23 02:26:28;;;;;;;8.98;4.22;;;;;;;6.49;53.32;99989.14;1761661;81;21155;-55
2021/03/23 02:29:10;;;;;;;6.30;3.85;;;;;;;6.53;52.88;99992.64;1767790;80;21143;-67
2021/03/23 02:31:46;;;;;;;6.33;4.12;;;;;;;6.48;52.78;99987.86;1760758;80;21204;-66
2021/03/23 02:34:17;;;;;;;7.45;4.15;;;;;;;6.46;52.55;99989.15;1779508;80;21138;-66
2021/03/23 02:36:45;;;;;;;6.25;3.40;;;;;;;6.39;52.44;99986.99;1763140;80;21212;-55
2021/03/23 02:39:20;;;;;;;6.97;3.15;;;;;;;6.34;52.08;99986.13;1788374;80;21126;-66
2021/03/23 02:41:48;;;;;;;6.00;3.55;;;;;;;6.35;52.29;99994.40;1785087;80;21135;-66
2021/03/23 02:44:16;;;;;;;7.47;3.62;;;;;;;6.34;52.21;99993.11;1783948;80;21123;-54
2021/03/23 02:46:44;;;;;;;6.78;2.70;;;;;;;6.32;52.06;99999.63;1784120;80;21168;-66
2021/03/23 02:49:12;;;;;;;9.78;3.15;;;;;;;6.29;51.74;100004.86;1725695;83;21130;-55
2021/03/23 02:51:40;;;;;;;5.50;2.80;;;;;;;6.28;51.37;100006.18;1713535;83;21233;-67
2021/03/23 02:54:07;;;;;;;6.72;2.85;;;;;;;6.28;51.44;100012.72;1720710;83;21151;-65
2021/03/23 02:56:35;;;;;;;5.05;2.45;;;;;;;6.22;51.00;100019.69;1730254;82;21309;-66
2021/03/23 02:59:03;;;;;;;5.83;2.55;;;;;;;6.16;50.82;100022.30;1725564;82;21146;-66
2021/03/23 03:01:33;;;;;;;3.95;2.00;;;;;;;6.17;50.90;100020.56;1715118;83;21144;-55
2021/03/23 03:04:05;;;;;;;4.90;2.47;;;;;;;6.11;50.91;100025.34;1724534;83;21191;-55
2021/03/23 03:06:33;;;;;;;4.78;2.33;;;;;;;6.06;50.36;100022.73;1720209;83;21645;-55
2021/03/23 03:09:02;;;;;;;6.03;2.60;;;;;;;6.09;50.59;100023.16;1713345;83;21136;-66
2021/03/23 03:11:30;;;;;;;7.20;2.47;;;;;;;6.12;50.71;100021.00;1708246;83;21179;-55
2021/03/23 03:13:57;;;;;;;5.42;2.33;;;;;;;6.05;50.09;100020.11;1724359;83;21126;-66
2021/03/23 03:16:25;;;;;;;4.25;2.05;;;;;;;6.00;49.92;100027.03;1725713;83;21351;-55
2021/03/23 03:18:54;;;;;;;5.37;2.30;;;;;;;6.04;50.15;100032.31;1721303;83;21187;-66
2021/03/23 03:21:21;;;;;;;5.42;2.50;;;;;;;6.06;49.93;100029.27;1708026;83;21143;-66
2021/03/23 03:23:50;;;;;;;7.65;2.12;;;;;;;6.08;49.34;100034.06;1711623;83;21154;-54
2021/03/23 03:26:17;;;;;;;4.10;1.90;;;;;;;6.10;49.33;100034.05;1707247;83;21318;-66
2021/03/23 03:28:50;;;;;;;5.90;2.37;;;;;;;6.04;49.31;100032.31;1729757;83;21180;-66
2021/03/23 03:31:15;;;;;;;6.97;2.40;;;;;;;5.20;51.03;100040.33;1724016;82;21118;-54
2021/03/23 03:33:43;;;;;;;3.72;1.95;;;;;;;5.00;51.75;100038.52;1729066;83;21127;-55
2021/03/23 03:36:12;;;;;;;3.83;1.67;;;;;;;5.89;49.57;100033.56;1724602;83;21118;-66
2021/03/23 03:38:40;;;;;;;5.35;2.58;;;;;;;6.02;49.36;100035.36;1736552;83;21219;-66
2021/03/23 03:41:08;;;;;;;7.28;2.37;;;;;;;6.15;48.97;100038.84;1724642;83;21150;-54
2021/03/23 03:43:35;;;;;;;6.85;3.65;;;;;;;6.15;48.73;100037.53;1736732;83;21140;-55
2021/03/23 03:46:04;;;;;;;6.30;2.60;;;;;;;6.17;48.85;100034.94;1724982;83;21126;-55
2021/03/23 03:48:32;;;;;;;5.33;2.30;;;;;;;6.11;48.28;100035.79;1736512;83;21183;-54
2021/03/23 03:51:00;;;;;;;6.12;2.45;;;;;;;6.08;48.41;100037.09;1723608;83;21106;-66
2021/03/23 03:53:28;;;;;;;6.37;2.20;;;;;;;6.05;48.26;100037.98;1736519;82;21121;-64
2021/03/23 03:55:56;;;;;;;5.47;2.22;;;;;;;6.09;48.21;100040.14;1725243;83;21117;-54
2021/03/23 03:58:23;;;;;;;4.15;1.90;;;;;;;6.11;48.29;100046.24;1728460;82;21527;-54
2021/03/23 04:00:51;;;;;;;4.42;2.12;;;;;;;6.00;47.55;100046.63;1722571;83;21130;-67
2021/03/23 04:03:22;;;;;;;5.72;1.70;;;;;;;6.06;47.53;100050.59;1725017;83;21187;-55
2021/03/23 04:05:51;;;;;;;3.75;1.65;;;;;;;5.90;47.19;100058.81;1707601;84;21120;-66
2021/03/23 04:08:22;;;;;;;3.55;1.75;;;;;;;5.96;46.99;100054.45;1699937;83;21534;-54
2021/03/23 04:10:52;;;;;;;4.78;2.33;;;;;;;5.93;47.02;100063.63;1725364;83;21585;-66
2021/03/23 04:13:20;;;;;;;6.28;2.10;;;;;;;5.89;47.30;100070.13;1713695;83;21108;-65
2021/03/23 04:15:49;;;;;;;5.05;1.92;;;;;;;5.89;47.10;100068.82;1705470;84;21631;-54
2021/03/23 04:18:20;;;;;;;5.60;1.90;;;;;;;5.79;47.14;100077.08;1766145;80;21539;-66
2021/03/23 04:20:50;;;;;;;5.42;2.00;;;;;;;5.75;47.07;100081.86;1756184;81;21162;-67
2021/03/23 04:23:32;;;;;;;5.58;2.05;;;;;;;5.76;47.37;100083.60;1700127;82;21185;-67
2021/03/23 04:26:01;;;;;;;4.97;1.55;;;;;;;5.76;47.60;100084.91;1756113;82;21285;-54
2021/03/23 04:28:29;;;;;;;4.10;1.80;;;;;;;5.74;47.22;100087.50;1761981;80;21346;-54
2021/03/23 04:30:57;;;;;;;3.90;1.87;;;;;;;5.80;46.97;100087.97;1763233;80;21127;-54
2021/03/23 04:33:27;;;;;;;4.33;1.75;;;;;;;5.81;46.94;100081.88;1756058;81;21313;-54
2021/03/23 04:35:59;;;;;;;3.47;1.37;;;;;;;5.76;46.98;100086.22;1761809;80;21666;-54
2021/03/23 04:38:32;;;;;;;6.60;1.42;;;;;;;5.78;46.67;100083.17;1756064;81;21297;-66
2021/03/23 04:41:06;;;;;;;4.00;1.75;;;;;;;5.76;47.01;100079.23;1763135;80;21138;-66
2021/03/23 04:43:41;;;;;;;4.17;1.70;;;;;;;5.74;47.00;100084.03;1756088;81;21317;-54
2021/03/23 04:46:10;;;;;;;3.98;1.62;;;;;;;5.78;47.06;100084.48;1773384;80;21629;-66
2021/03/23 04:48:38;;;;;;;4.72;1.67;;;;;;;5.66;46.31;100084.87;1783708;80;21191;-65
2021/03/23 04:51:09;;;;;;;1.72;0.88;;;;;;;5.76;46.32;100088.83;1759761;80;21115;-54
2021/03/23 04:53:38;;;;;;;4.90;1.32;;;;;;;5.80;46.47;100091.89;1770519;80;21281;-66
2021/03/23 04:56:07;;;;;;;3.72;1.45;;;;;;;5.78;46.27;100094.47;1768884;80;21163;-54
2021/03/23 04:58:35;;;;;;;3.95;1.37;;;;;;;5.80;46.09;100094.50;1771240;79;21119;-65
2021/03/23 05:01:03;;;;;;;4.10;1.50;;;;;;;5.77;46.15;100095.34;1773254;80;21143;-66
2021/03/23 05:03:33;;;;;;;12.18;1.92;;;;;;;5.82;46.18;100101.91;1756041;82;21175;-55
2021/03/23 05:06:07;;;;;;;7.20;1.50;;;;;;;5.78;46.50;100102.31;1756785;80;21285;-54
2021/03/23 05:08:37;;;;;;;6.30;1.30;;;;;;;5.75;45.99;100098.83;1762573;80;21630;-66
2021/03/23 05:11:05;;;;;;;3.05;1.10;;;;;;;5.73;45.75;100101.45;1756312;82;21128;-65
2021/03/23 05:13:33;;;;;;;12.43;6.65;;;;;;;5.68;45.12;100101.87;1764298;80;21147;-55
2021/03/23 05:16:01;;;;;;;14.30;9.45;;;;;;;5.65;45.42;100111.85;1779286;79;21131;-66
2021/03/23 05:18:29;;;;;;;24.15;15.90;;;;;;;5.62;45.73;100114.45;1775561;81;21176;-66
2021/03/23 05:20:57;;;;;;;16.48;9.93;;;;;;;5.64;45.48;100118.39;1778991;80;21540;-54
2021/03/23 05:23:25;;;;;;;4.58;2.70;;;;;;;5.65;45.91;100120.98;1779009;81;21140;-65
2021/03/23 05:25:52;;;;;;;17.87;4.22;;;;;;;5.61;45.39;100116.62;1759789;80;21128;-54
2021/03/23 05:28:20;;;;;;;5.22;1.77;;;;;;;5.66;46.19;100120.12;1778821;80;21648;-65
2021/03/23 05:30:48;;;;;;;4.58;1.45;;;;;;;5.71;45.74;100120.16;1779078;81;21124;-65
2021/03/23 05:33:15;;;;;;;3.15;1.45;;;;;;;5.72;45.67;100117.99;1766314;80;21124;-65
2021/03/23 05:35:44;;;;;;;6.35;1.40;;;;;;;5.61;45.31;100125.76;1754537;80;21127;-65
2021/03/23 05:38:11;;;;;;;3.30;1.30;;;;;;;5.65;45.73;100130.58;1748288;81;21123;-65
2021/03/23 05:40:44;;;;;;;5.03;1.35;;;;;;;5.64;45.99;100119.70;1748062;81;21179;-53
2021/03/23 05:43:34;;;;;;;3.80;1.07;;;;;;;5.80;46.08;100132.37;1751124;81;21161;-65
2021/03/23 05:46:16;;;;;;;4.40;1.30;;;;;;;5.93;45.29;100128.05;1773913;81;21104;-54
2021/03/23 05:49:12;;;;;;;3.37;1.22;;;;;;;6.17;45.31;100136.41;1747980;81;21172;-65
2021/03/23 05:51:55;;;;;;;5.53;1.80;;;;;;;6.32;44.92;100138.17;1751777;81;21175;-53
2021/03/23 05:54:43;;;;;;;4.25;1.57;;;;;;;6.50;43.81;100135.15;1747492;81;21115;-65
2021/03/23 05:57:38;;;;;;;6.60;1.50;;;;;;;6.72;44.39;100135.13;1739889;82;21155;-54
2021/03/23 06:00:26;;;;;;;5.78;2.00;;;;;;;6.80;43.88;100132.97;1718944;82;21144;-54
2021/03/23 06:03:24;;;;;;;4.78;1.50;;;;;;;6.99;43.78;100138.16;1726775;80;21140;-54
2021/03/23 06:06:30;;;;;;;6.00;1.25;;;;;;;7.08;43.34;100135.96;1758055;81;21127;-54
2021/03/23 06:08:58;;;;;;;3.50;1.27;;;;;;;6.50;44.58;100131.23;1764347;81;21142;-53
2021/03/23 06:11:47;;;;;;;4.12;1.20;;;;;;;7.03;42.74;100132.51;1759976;81;21150;-55
2021/03/23 06:14:53;;;;;;;4.50;1.50;;;;;;;7.29;41.90;100135.03;1769069;81;21163;-65
2021/03/23 06:17:42;;;;;;;5.37;1.62;;;;;;;7.53;42.61;100132.78;1764424;81;21180;-53
2021/03/23 06:20:39;;;;;;;9.10;4.15;;;;;;;7.60;40.28;100132.34;1763834;81;21092;-63
2021/03/23 06:23:29;;;;;;;5.70;2.17;;;;;;;7.82;41.19;100129.61;1761297;81;21146;-53
2021/03/23 06:26:24;;;;;;;5.97;2.00;;;;;;;7.95;41.13;100137.84;1749644;81;21143;-65
2021/03/23 06:29:23;;;;;;;6.42;1.77;;;;;;;8.09;40.42;100143.45;1759004;81;21175;-54
2021/03/23 06:32:03;;;;;;;3.92;1.57;;;;;;;8.23;40.13;100149.92;1748173;82;21139;-64
2021/03/23 06:34:34;;;;;;;3.10;1.40;;;;;;;8.26;39.70;100156.00;1748189;82;21151;-65
2021/03/23 06:37:14;;;;;;;3.00;1.20;;;;;;;7.71;40.41;100158.06;1748540;81;21606;-64
2021/03/23 06:39:42;;;;;;;;;;;;;;;7.39;39.91;100166.88;1754726;81;21159;-53
2021/03/23 06:42:10;;;;;;;3.60;1.00;;;;;;;7.50;41.46;100170.80;1748363;81;20444;-62
2021/03/23 06:44:41;;;;;;;2.92;0.98;;;;;;;7.69;40.88;100165.47;1748456;82;21155;-54
2021/03/23 06:47:35;;;;;;;4.83;1.00;;;;;;;7.71;39.54;100165.03;1749561;81;21610;-53
2021/03/23 06:50:33;;;;;;;6.25;1.07;;;;;;;7.79;39.03;100167.19;1824582;77;22135;-63
2021/03/23 06:53:14;;;;;;;3.75;1.42;;;;;;;7.88;39.57;100174.12;1759168;81;21630;-53
2021/03/23 06:55:46;;;;;;;3.15;1.05;;;;;;;8.71;40.99;100167.54;1758692;81;21102;-65
2021/03/23 06:58:32;;;;;;;4.22;1.32;;;;;;;9.47;37.26;100152.37;1760679;80;21162;-64
2021/03/23 07:01:24;;;;;;;3.37;0.75;;;;;;;9.61;37.00;100153.95;1767388;80;21091;-65
2021/03/23 07:03:55;;;;;;;4.92;1.02;;;;;;;9.77;36.45;100159.88;1782064;80;21467;-55
2021/03/23 07:06:29;;;;;;;5.25;0.93;;;;;;;9.94;36.06;100160.98;1763815;80;21266;-65
2021/03/23 07:09:13;;;;;;;3.47;0.90;;;;;;;10.07;34.71;100157.77;1708781;83;21299;-55
2021/03/23 07:12:04;;;;;;;2.40;1.00;;;;;;;10.11;34.38;100157.69;1725876;83;21658;-53
2021/03/23 07:14:39;;;;;;;3.35;1.30;;;;;;;10.30;35.33;100160.06;1715448;82;21607;-54
2021/03/23 07:17:15;;;;;;;1.92;0.95;;;;;;;10.28;33.74;100159.22;1742287;82;21173;-64
2021/03/23 07:20:08;;;;;;;2.45;0.80;;;;;;;10.15;33.58;100166.42;1725566;83;21178;-54
2021/03/23 07:22:44;;;;;;;3.47;1.20;;;;;;;10.06;32.99;100167.86;1725333;83;21156;-53
2021/03/23 07:25:42;;;;;;;41.25;23.77;;;;;;;10.16;30.61;100167.27;1700019;83;21581;-62
2021/03/23 07:28:33;;;;;;;123.67;81.30;;;;;;;10.16;29.41;100159.38;1731055;82;21341;-63
2021/03/23 07:31:32;;;;;;;56.60;46.18;;;;;;;9.89;27.17;100158.42;1742127;82;21320;-63
2021/03/23 07:34:32;;;;;;;10.03;7.65;;;;;;;9.97;28.70;100156.99;1726502;82;21311;-64
2021/03/23 07:37:04;;;;;;;6.05;2.27;;;;;;;10.23;30.63;100157.95;1725813;83;21604;-54
2021/03/23 07:39:54;;;;;;;9.20;4.80;;;;;;;10.37;27.81;100151.20;1726974;82;21649;-54
2021/03/23 07:42:39;;;;;;;24.00;10.68;;;;;;;10.49;27.96;100149.27;1726448;82;21566;-54
2021/03/23 07:45:27;;;;;;;73.17;29.85;;;;;;;10.61;28.15;100157.41;1725633;83;21154;-54
2021/03/23 07:48:04;;;;;;;103.60;78.72;;;;;;;10.56;27.60;100146.97;1710543;82;21574;-55
2021/03/23 07:50:35;;;;;;;65.78;53.35;;;;;;;10.59;28.36;100148.24;1739729;82;21594;-63
2021/03/23 07:53:09;;;;;;;;;;;;;;;10.65;27.72;100144.20;1739190;82;21200;-55
2021/03/23 07:55:37;;;;;;;6.12;3.15;;;;;;;10.77;28.33;100144.44;1734614;82;20148;-65
2021/03/23 07:58:34;;;;;;;4.35;1.92;;;;;;;10.91;28.62;100143.34;1729839;82;21590;-64
2021/03/23 08:01:19;;;;;;;2.70;1.27;;;;;;;11.18;29.46;100148.56;1728995;82;21159;-55
2021/03/23 08:04:27;;;;;;;3.30;1.02;;;;;;;11.45;26.71;100145.86;1734977;82;21146;-55
2021/03/23 08:07:16;;;;;;;3.90;2.37;;;;;;;11.49;27.38;100148.41;1725230;83;21208;-56
2021/03/23 08:10:17;;;;;;;3.30;1.52;;;;;;;11.59;26.75;100142.05;1814356;77;22550;-63
2021/03/23 08:13:12;;;;;;;2.45;1.15;;;;;;;11.65;27.55;100137.12;1769067;80;21693;-54
2021/03/23 08:16:19;;;;;;;2.02;1.20;;;;;;;11.95;27.78;100127.67;1777511;80;21134;-64
2021/03/23 08:19:22;;;;;;;1.90;1.07;;;;;;;12.31;27.46;100133.50;1762088;81;21154;-64
2021/03/23 08:22:11;;;;;;;1.55;0.65;;;;;;;12.45;27.27;100122.61;1761768;81;21142;-63
2021/03/23 08:25:06;;;;;;;2.98;1.20;;;;;;;12.58;26.58;100113.97;1771528;80;21530;-64
2021/03/23 08:27:48;;;;;;;2.75;1.70;;;;;;;11.84;27.18;100119.14;1772036;80;21183;-55
2021/03/23 08:30:48;;;;;;;4.12;2.10;;;;;;;11.69;27.17;100119.88;1762017;80;21091;-55
2021/03/23 08:33:39;;;;;;;3.77;1.25;;;;;;;11.79;27.60;100115.27;1761749;81;21200;-64
2021/03/23 08:36:34;;;;;;;2.80;1.37;;;;;;;11.83;26.78;100112.98;1772262;80;21566;-64
2021/03/23 08:39:20;;;;;;;2.33;1.20;;;;;;;12.97;25.81;100100.63;1793302;80;21134;-63
2021/03/23 08:42:14;;;;;;;2.72;0.93;;;;;;;12.16;26.31;100095.16;1746062;79;21640;-55
2021/03/23 08:45:07;;;;;;;1.70;0.78;;;;;;;12.24;26.76;100098.92;1790671;80;21586;-65
2021/03/23 08:47:59;;;;;;;1.87;0.90;;;;;;;12.15;24.83;100093.42;1728032;81;21154;-64
2021/03/23 08:50:42;;;;;;;1.57;0.65;;;;;;;12.98;24.82;100090.92;1714663;84;21151;-54
2021/03/23 08:53:34;;;;;;;3.40;0.98;;;;;;;13.52;24.70;100083.71;1714842;84;21168;-54
2021/03/23 08:56:04;;;;;;;2.67;1.30;;;;;;;13.71;24.34;100081.83;1636643;87;21223;-63
2021/03/23 08:58:48;;;;;;;2.17;1.15;;;;;;;13.76;25.20;100082.55;1641587;87;21246;-64
2021/03/23 09:01:40;;;;;;;4.10;2.75;;;;;;;13.81;24.19;100087.73;1655946;87;21181;-63
2021/03/23 09:04:24;;;;;;;4.05;1.20;;;;;;;13.91;25.17;100075.92;1680061;82;21280;-59
2021/03/23 09:07:02;;;;;;;3.65;0.90;;;;;;;13.92;21.86;100063.58;1726045;82;21296;-56
2021/03/23 09:09:38;;;;;;;1.80;0.70;;;;;;;13.79;24.97;100069.71;1727767;82;21554;-64
2021/03/23 09:12:42;;;;;;;5.00;1.10;;;;;;;13.91;21.59;100065.81;1734645;82;21135;-54
2021/03/23 09:15:21;;;;;;;2.10;1.00;;;;;;;14.12;25.02;100062.50;1745711;82;21472;-65
2021/03/23 09:18:17;;;;;;;3.02;1.12;;;;;;;14.19;21.81;100056.55;1747921;82;21123;-62
2021/03/23 09:20:52;;;;;;;4.85;1.72;;;;;;;14.39;22.90;100049.27;1746541;82;21188;-64
2021/03/23 09:23:28;;;;;;;3.05;1.40;;;;;;;14.53;22.49;100051.92;1737412;82;21324;-54
2021/03/23 09:26:03;;;;;;;2.20;1.47;;;;;;;14.64;23.10;100045.77;1717693;83;21191;-54
2021/03/23 09:31:33;;;;;;;8.08;4.35;;;;;;;14.92;22.29;100030.28;1813093;77;22159;-61
2021/03/23 09:34:01;;;;;;;15.93;12.18;;;;;;;14.93;22.33;100028.03;1761501;81;21103;-54
2021/03/23 09:36:49;;;;;;;7.42;4.70;;;;;;;15.01;22.13;100025.95;1757113;81;21123;-54
2021/03/23 09:39:23;;;;;;;3.72;1.98;;;;;;;15.18;22.66;100019.65;1761894;81;21807;-55
2021/03/23 09:41:55;;;;;;;2.20;0.90;;;;;;;15.55;22.94;100015.59;1752513;81;21602;-64
2021/03/23 09:44:31;;;;;;;17.77;10.25;;;;;;;15.43;20.80;100011.63;1712830;82;21154;-64
2021/03/23 09:47:00;;;;;;;6.80;4.10;;;;;;;15.12;21.28;100018.07;1728406;81;21166;-55
2021/03/23 09:49:36;;;;;;;2.75;1.30;;;;;;;15.17;22.62;100017.44;1751955;81;21174;-64
2021/03/23 09:52:11;;;;;;;16.10;9.98;;;;;;;15.63;21.90;100012.63;1761146;81;21178;-64
2021/03/23 09:54:54;;;;;;;16.02;10.82;;;;;;;15.81;21.04;100009.70;1743508;81;21166;-64
2021/03/23 09:57:28;;;;;;;111.20;67.72;;;;;;;15.92;22.09;99998.23;1741536;81;21115;-53
2021/03/23 09:59:59;;;;;;;125.62;86.57;;;;;;;16.14;21.69;99995.56;1753143;81;21170;-54
2021/03/23 10:02:34;;;;;;;77.72;67.05;;;;;;;16.13;19.85;100004.91;1761033;81;21176;-64
2021/03/23 10:05:25;;;;;;;55.05;47.48;;;;;;;16.05;21.68;99993.28;1753787;81;21143;-63
2021/03/23 10:08:11;;;;;;;3.15;2.00;;;;;;;16.22;20.94;99991.73;1762090;81;21295;-63
2021/03/23 10:10:40;;;;;;;3.90;1.62;;;;;;;15.87;18.15;99978.53;1759085;81;21162;-64
2021/03/23 10:13:28;;;;;;;5.35;3.22;;;;;;;15.54;19.54;99974.92;1746018;81;21615;-56
2021/03/23 10:16:00;;;;;;;3.75;1.92;;;;;;;15.70;22.32;99984.94;1745772;81;21146;-64
2021/03/23 10:18:31;;;;;;;;;;;;;;;15.63;19.06;99971.06;1753451;81;21566;-57
2021/03/23 10:21:12;;;;;;;2.35;1.40;;;;;;;15.39;19.26;99974.22;1742700;81;20480;-56
2021/03/23 10:23:50;;;;;;;2.50;1.00;;;;;;;15.28;19.60;99966.21;1740910;81;21162;-56
2021/03/23 10:26:18;;;;;;;3.72;1.45;;;;;;;15.41;21.41;99958.64;1745888;81;21158;-56
2021/03/23 10:31:35;;;;;;;10.72;5.90;;;;;;;16.47;21.96;99951.71;1806264;77;22158;-54
2021/03/23 10:34:05;;;;;;;;;;;;;;;16.35;20.19;99943.34;1757853;80;21108;-65
2021/03/23 10:37:01;;;;;;;10.80;6.58;;;;;;;16.29;21.50;99946.25;1752649;81;20143;-56
2021/03/23 10:39:43;;;;;;;3.15;1.50;;;;;;;16.47;19.88;99940.60;1754317;80;21580;-65
2021/03/23 10:42:31;;;;;;;3.45;1.67;;;;;;;16.24;19.50;99931.45;1752034;81;21158;-64
2021/03/23 10:45:25;;;;;;;4.00;1.60;;;;;;;16.34;23.03;99927.00;1759538;81;21289;-65
2021/03/23 10:48:20;;;;;;;3.05;1.50;;;;;;;16.70;21.66;99928.55;1757373;81;21643;-66
2021/03/23 10:51:25;;;;;;;3.62;1.32;;;;;;;16.95;22.23;99929.18;1714775;80;21182;-54
2021/03/23 10:54:11;;;;;;;4.03;1.20;;;;;;;16.77;20.23;99919.38;1752169;80;21159;-62
2021/03/23 10:56:49;;;;;;;3.20;1.30;;;;;;;16.64;20.12;99923.06;1744417;81;21130;-55
2021/03/23 10:59:32;;;;;;;12.82;8.28;;;;;;;16.40;18.79;99919.22;1759974;80;21143;-63
2021/03/23 11:02:05;;;;;;;3.95;1.77;;;;;;;16.37;19.02;99923.34;1739804;81;21291;-55
2021/03/23 11:04:36;;;;;;;2.05;0.80;;;;;;;16.42;19.02;99904.56;1765127;81;21178;-55
2021/03/23 11:07:23;;;;;;;2.75;1.10;;;;;;;16.60;19.78;99906.38;1759084;81;21191;-55
2021/03/23 11:09:52;;;;;;;3.42;0.93;;;;;;;16.95;20.55;99889.77;1778462;80;21153;-53
2021/03/23 11:12:21;;;;;;;2.05;0.90;;;;;;;17.38;20.38;99891.73;1783034;80;21564;-53
2021/03/23 11:14:49;;;;;;;1.57;0.60;;;;;;;17.29;17.85;99886.86;1782674;80;21145;-54
2021/03/23 11:17:21;;;;;;;4.20;0.80;;;;;;;16.59;18.04;99885.20;1735652;80;21196;-63
2021/03/23 11:19:51;;;;;;;2.17;0.90;;;;;;;16.11;18.88;99891.31;1744875;82;21183;-62
2021/03/23 11:22:23;;;;;;;1.25;0.60;;;;;;;16.18;19.90;99883.00;1745045;82;21509;-54
2021/03/23 11:24:51;;;;;;;3.75;0.60;;;;;;;16.23;19.94;99886.77;1745570;82;21685;-64
2021/03/23 11:27:19;;;;;;;2.05;0.80;;;;;;;16.30;21.44;99880.75;1755163;80;21579;-54
2021/03/23 11:29:47;;;;;;;5.10;0.80;;;;;;;16.28;20.45;99868.84;1758081;81;21603;-54
2021/03/23 11:32:15;;;;;;;2.20;0.80;;;;;;;16.09;20.54;99870.60;1748809;82;21595;-54
2021/03/23 11:34:43;;;;;;;1.50;0.62;;;;;;;15.67;19.18;99872.31;1748643;82;21175;-58
2021/03/23 11:37:12;;;;;;;1.60;0.65;;;;;;;15.42;21.58;99882.14;1767103;81;21141;-63
2021/03/23 11:39:42;;;;;;;4.33;0.70;;;;;;;15.39;22.26;99871.66;1742469;81;21132;-64
2021/03/23 11:42:29;;;;;;;3.77;0.93;;;;;;;15.32;21.03;99860.89;1739386;81;21144;-63
2021/03/23 11:45:02;;;;;;;3.92;0.80;;;;;;;15.10;21.01;99859.11;1722994;82;21196;-53
2021/03/23 11:47:44;;;;;;;1.82;0.80;;;;;;;15.15;21.67;99850.97;1748109;82;21148;-53
2021/03/23 11:50:13;;;;;;;1.52;0.90;;;;;;;15.20;21.67;99856.10;1739568;81;21144;-63
2021/03/23 11:52:42;;;;;;;1.77;0.70;;;;;;;15.36;21.61;99852.37;1748111;82;21631;-53
2021/03/23 11:55:13;;;;;;;3.08;1.45;;;;;;;15.45;21.33;99846.70;1748637;81;21183;-62
2021/03/23 11:57:42;;;;;;;3.00;1.00;;;;;;;15.30;20.30;99845.50;1744587;81;21160;-53
2021/03/23 12:00:13;;;;;;;2.42;0.98;;;;;;;14.94;21.04;99846.05;1748075;82;21322;-63
2021/03/23 12:02:42;;;;;;;1.70;0.75;;;;;;;14.56;20.47;99843.45;1748039;81;21181;-63
2021/03/23 12:05:13;;;;;;;2.80;0.78;;;;;;;14.21;20.90;99848.70;1748346;82;21160;-53
2021/03/23 12:08:10;;;;;;;4.85;1.15;;;;;;;13.92;21.74;99846.17;1747531;82;21136;-64
2021/03/23 12:10:59;;;;;;;2.55;1.15;;;;;;;13.76;22.27;99849.80;1744230;81;21178;-62
2021/03/23 12:13:49;;;;;;;2.80;1.40;;;;;;;13.59;22.16;99846.88;1765296;81;21151;-62
2021/03/23 12:16:41;;;;;;;3.77;0.90;;;;;;;13.26;22.84;99850.53;1761629;81;21121;-53
2021/03/23 12:19:13;;;;;;;1.55;0.62;;;;;;;12.69;23.86;99858.41;1707260;84;21289;-63